Time;durP1;ratioP1;P1;durP2;ratioP2;P2;SDS_P1;SDS_P2;PMS_P1;PMS_P2;Temp;Humidity;BMP_temperature;BMP_pressure;BME280_temperature;BME280_humidity;BME280_pressure;Samples;Min_cycle;Max_cycle;Signal;HPM_P1;HPM_P2
2021/11/26 00:02:06;;;;;;;46.45;14.13;;;8.20;98.20;;;;;;5030783;28;20021;-49
2021/11/26 00:04:31;;;;;;;48.95;12.77;;;8.20;98.10;;;;;;5030660;28;20049;-49
2021/11/26 00:06:57;;;;;;;47.47;12.63;;;8.10;98.10;;;;;;5028439;28;20033;-49
2021/11/26 00:09:23;;;;;;;40.38;12.95;;;8.10;98.00;;;;;;5030152;28;20025;-49
2021/11/26 00:11:48;;;;;;;36.58;13.85;;;8.10;98.20;;;;;;5030380;28;20037;-49
2021/11/26 00:14:22;;;;;;;38.72;12.63;;;8.10;98.10;;;;;;5029857;28;20042;-49
2021/11/26 00:16:54;;;;;;;49.25;13.25;;;8.10;98.10;;;;;;5029333;28;20468;-49
2021/11/26 00:19:20;;;;;;;40.50;13.80;;;8.10;98.30;;;;;;5030144;28;20030;-49
2021/11/26 00:21:46;;;;;;;41.72;12.60;;;8.10;98.20;;;;;;5014598;28;20026;-49
2021/11/26 00:24:13;;;;;;;44.33;12.75;;;8.10;98.00;;;;;;5014276;28;20117;-49
2021/11/26 00:26:39;;;;;;;33.67;11.63;;;8.10;98.10;;;;;;5013659;28;20029;-49
2021/11/26 00:29:05;;;;;;;38.92;11.55;;;8.10;98.10;;;;;;5032660;28;20030;-49
2021/11/26 00:31:30;;;;;;;44.90;13.43;;;8.10;98.20;;;;;;5034187;28;20036;-49
2021/11/26 00:33:56;;;;;;;39.63;11.95;;;8.10;98.00;;;;;;5031857;28;20021;-49
2021/11/26 00:36:22;;;;;;;34.45;12.43;;;8.10;98.00;;;;;;5032273;28;20025;-49
2021/11/26 00:38:47;;;;;;;34.95;13.00;;;8.10;98.20;;;;;;5033488;28;20159;-49
2021/11/26 00:41:13;;;;;;;39.40;12.57;;;8.10;98.00;;;;;;5033665;28;20026;-49
2021/11/26 00:43:39;;;;;;;38.00;13.05;;;8.10;98.10;;;;;;5033654;28;20028;-49
2021/11/26 00:46:04;;;;;;;45.05;14.48;;;8.10;98.10;;;;;;5033145;28;20040;-49
2021/11/26 00:48:30;;;;;;;44.85;12.27;;;8.10;98.10;;;;;;5033598;28;20105;-49
2021/11/26 00:50:55;;;;;;;38.67;13.32;;;8.10;98.20;;;;;;5024894;28;20107;-49
2021/11/26 00:53:21;;;;;;;56.35;15.05;;;8.10;97.90;;;;;;5033616;28;20029;-49
2021/11/26 00:55:47;;;;;;;45.70;14.48;;;8.10;98.10;;;;;;5033160;28;20559;-49
2021/11/26 00:58:12;;;;;;;46.60;14.90;;;8.10;97.90;;;;;;5033497;28;20116;-49
2021/11/26 01:00:38;;;;;;;42.67;14.35;;;8.10;97.90;;;;;;5033265;28;20029;-49
2021/11/26 01:03:05;;;;;;;45.47;14.25;;;8.10;98.10;;;;;;5033118;28;20028;-49
2021/11/26 01:05:32;;;;;;;42.53;13.73;;;8.10;98.10;;;;;;5030070;28;20036;-49
2021/11/26 01:07:57;;;;;;;42.13;12.40;;;8.10;98.20;;;;;;5021015;28;20029;-49
2021/11/26 01:10:24;;;;;;;48.47;14.55;;;8.10;98.20;;;;;;5033570;28;20049;-49
2021/11/26 01:12:50;;;;;;;40.97;12.90;;;8.10;98.10;;;;;;5032842;28;20028;-49
2021/11/26 01:15:19;;;;;;;44.92;13.63;;;8.10;98.10;;;;;;5032568;28;20079;-49
2021/11/26 01:17:46;;;;;;;33.20;11.63;;;8.10;98.10;;;;;;5033298;28;20045;-49
2021/11/26 01:20:16;;;;;;;36.85;13.73;;;8.10;98.10;;;;;;5033315;28;20334;-49
2021/11/26 01:22:42;;;;;;;46.73;13.27;;;8.10;98.00;;;;;;5031856;28;20137;-49
2021/11/26 01:25:09;;;;;;;37.80;12.98;;;8.10;98.10;;;;;;5031814;28;20403;-49
2021/11/26 01:27:36;;;;;;;41.47;12.05;;;8.10;98.10;;;;;;5026417;28;20022;-49
2021/11/26 01:30:09;;;;;;;42.10;13.13;;;8.10;98.10;;;;;;5013163;28;20081;-49
2021/11/26 01:32:35;;;;;;;46.08;12.48;;;8.10;98.10;;;;;;5013150;28;20026;-49
2021/11/26 01:35:01;;;;;;;37.63;13.10;;;8.10;98.00;;;;;;5010346;28;20033;-49
2021/11/26 01:37:26;;;;;;;35.88;12.50;;;8.10;98.10;;;;;;5012353;28;20147;-49
2021/11/26 01:39:52;;;;;;;40.08;11.68;;;8.10;98.10;;;;;;5013582;28;20030;-49
2021/11/26 01:42:18;;;;;;;42.25;13.18;;;8.10;98.10;;;;;;5018119;28;20021;-49
2021/11/26 01:44:43;;;;;;;41.58;14.13;;;8.10;98.00;;;;;;5031891;28;20670;-49
2021/11/26 01:47:12;;;;;;;39.75;12.80;;;8.10;98.00;;;;;;5031286;28;20025;-49
2021/11/26 01:49:38;;;;;;;44.10;14.02;;;8.10;98.00;;;;;;5031867;28;20034;-49
2021/11/26 01:52:04;;;;;;;40.33;13.32;;;8.10;98.10;;;;;;5031226;28;20033;-49
2021/11/26 01:54:29;;;;;;;33.67;10.57;;;8.10;98.10;;;;;;5032442;28;20437;-49
2021/11/26 01:56:55;;;;;;;38.60;11.23;;;8.10;98.10;;;;;;5031930;28;20053;-49
2021/11/26 01:59:21;;;;;;;49.65;12.82;;;8.10;98.00;;;;;;5032057;28;20025;-49
2021/11/26 02:01:47;;;;;;;44.83;12.63;;;8.10;98.00;;;;;;5032102;28;20492;-49
2021/11/26 02:04:12;;;;;;;40.55;12.30;;;8.10;98.00;;;;;;5031956;28;20013;-49
2021/11/26 02:06:38;;;;;;;33.88;11.43;;;8.10;98.00;;;;;;5023749;28;20030;-49
2021/11/26 02:09:03;;;;;;;36.72;12.70;;;8.10;97.90;;;;;;5012314;28;20065;-49
2021/11/26 02:11:29;;;;;;;38.72;12.43;;;8.10;98.00;;;;;;5012150;28;20116;-49
2021/11/26 02:13:55;;;;;;;35.88;12.90;;;8.10;98.00;;;;;;5011582;28;20018;-49
2021/11/26 02:16:20;;;;;;;39.30;12.02;;;8.10;97.90;;;;;;5011599;28;20040;-49
2021/11/26 02:18:49;;;;;;;40.13;13.10;;;8.10;98.00;;;;;;5031748;28;20033;-49
2021/11/26 02:21:17;;;;;;;36.90;13.07;;;8.10;97.90;;;;;;5030810;28;20033;-49
2021/11/26 02:23:43;;;;;;;37.17;11.45;;;8.10;97.90;;;;;;5031807;28;20062;-49
2021/11/26 02:26:08;;;;;;;40.28;11.63;;;8.10;97.90;;;;;;5031142;28;20072;-49
2021/11/26 02:28:34;;;;;;;43.72;13.30;;;8.10;98.00;;;;;;5031638;28;20109;-49
2021/11/26 02:30:59;;;;;;;41.05;12.63;;;8.00;97.90;;;;;;5031878;28;20116;-49
2021/11/26 02:33:25;;;;;;;37.15;13.13;;;8.10;98.10;;;;;;5031613;28;20104;-49
2021/11/26 02:35:54;;;;;;;36.97;13.68;;;8.10;98.00;;;;;;5030605;28;20028;-49
2021/11/26 02:38:22;;;;;;;33.10;11.07;;;8.10;97.90;;;;;;5030446;28;20361;-49
2021/11/26 02:40:49;;;;;;;38.50;12.95;;;8.10;98.00;;;;;;5031322;28;20463;-49
2021/11/26 02:43:15;;;;;;;40.55;12.02;;;8.10;98.00;;;;;;5014832;28;20350;-49
2021/11/26 02:45:44;;;;;;;38.25;12.52;;;8.10;97.90;;;;;;5010062;28;20528;-49
2021/11/26 02:48:12;;;;;;;38.70;13.88;;;8.10;97.90;;;;;;5011963;28;20038;-49
2021/11/26 02:50:39;;;;;;;46.60;13.60;;;8.10;98.00;;;;;;5011585;28;20080;-49
2021/11/26 02:53:05;;;;;;;36.95;12.52;;;8.10;98.00;;;;;;5027766;28;20037;-49
2021/11/26 02:55:33;;;;;;;38.55;13.38;;;8.10;97.80;;;;;;5030703;28;20052;-49
2021/11/26 02:58:00;;;;;;;46.50;13.95;;;8.10;98.00;;;;;;5029209;28;20032;-50
2021/11/26 03:00:27;;;;;;;37.92;10.95;;;8.10;98.00;;;;;;5030473;28;20032;-49
2021/11/26 03:02:54;;;;;;;36.92;12.32;;;8.10;97.90;;;;;;5029240;28;20496;-49
2021/11/26 03:05:20;;;;;;;34.53;10.57;;;8.10;98.00;;;;;;5029409;28;20076;-49
2021/11/26 03:07:47;;;;;;;37.13;11.50;;;8.10;98.00;;;;;;5018304;28;20480;-49
2021/11/26 03:10:17;;;;;;;37.83;12.00;;;8.00;97.80;;;;;;5011089;28;20042;-49
2021/11/26 03:12:48;;;;;;;40.33;11.18;;;8.10;98.00;;;;;;5011408;28;20025;-49
2021/11/26 03:15:15;;;;;;;39.85;12.48;;;8.10;97.90;;;;;;5010063;28;20452;-48
2021/11/26 03:17:41;;;;;;;35.45;11.88;;;8.10;97.80;;;;;;5010880;28;20158;-49
2021/11/26 03:20:07;;;;;;;40.95;12.07;;;8.10;97.90;;;;;;5011262;28;20037;-49
2021/11/26 03:22:33;;;;;;;30.73;10.80;;;8.10;98.00;;;;;;5019577;28;20026;-49
2021/11/26 03:24:58;;;;;;;42.00;11.80;;;8.10;98.00;;;;;;5030151;28;20084;-49
2021/11/26 03:27:24;;;;;;;28.48;9.80;;;8.10;98.00;;;;;;5029280;28;20452;-49
2021/11/26 03:29:50;;;;;;;35.38;11.52;;;8.10;97.90;;;;;;5030563;28;20481;-49
2021/11/26 03:32:15;;;;;;;34.55;11.60;;;8.10;97.90;;;;;;5030838;28;20029;-49
2021/11/26 03:34:41;;;;;;;29.65;10.48;;;8.00;97.90;;;;;;5022894;28;20105;-49
2021/11/26 03:37:06;;;;;;;31.80;10.02;;;8.10;98.00;;;;;;5028236;28;20469;-49
2021/11/26 03:39:32;;;;;;;39.03;12.30;;;8.00;97.80;;;;;;5030348;28;20029;-49
2021/11/26 03:41:58;;;;;;;31.77;10.27;;;8.00;98.00;;;;;;5030651;28;20029;-50
2021/11/26 03:44:23;;;;;;;32.20;9.98;;;8.00;97.90;;;;;;5029920;28;20179;-49
2021/11/26 03:46:49;;;;;;;32.45;9.20;;;8.00;98.00;;;;;;5030014;28;20076;-49
2021/11/26 03:49:15;;;;;;;36.10;11.45;;;8.10;97.90;;;;;;5029747;28;20033;-49
2021/11/26 03:51:40;;;;;;;35.67;11.40;;;8.00;98.10;;;;;;5030344;28;20441;-49
2021/11/26 03:54:06;;;;;;;37.60;10.27;;;8.10;97.90;;;;;;5029274;28;20097;-49
2021/11/26 03:56:31;;;;;;;33.13;13.85;;;8.10;98.00;;;;;;5029945;28;20334;-49
2021/11/26 03:58:57;;;;;;;23.42;8.30;;;8.00;98.00;;;;;;5033585;28;20021;-49
2021/11/26 04:01:23;;;;;;;30.77;9.57;;;8.00;98.00;;;;;;5032291;28;20435;-49
2021/11/26 04:03:48;;;;;;;32.10;9.90;;;8.00;98.40;;;;;;5034913;28;20095;-49
2021/11/26 04:06:14;;;;;;;29.40;9.50;;;8.10;98.00;;;;;;5016706;28;20108;-49
2021/11/26 04:08:39;;;;;;;40.85;12.05;;;8.10;97.90;;;;;;5028328;28;20029;-49
2021/11/26 04:11:05;;;;;;;32.58;10.68;;;8.00;97.80;;;;;;5034297;28;20042;-49
2021/11/26 04:13:31;;;;;;;35.85;12.60;;;8.00;98.00;;;;;;5034256;28;20033;-49
2021/11/26 04:16:02;;;;;;;46.45;12.25;;;8.10;98.00;;;;;;5033514;28;20083;-49
2021/11/26 04:18:29;;;;;;;36.97;11.40;;;8.00;98.00;;;;;;5034171;28;20530;-49
2021/11/26 04:20:54;;;;;;;42.38;12.40;;;8.00;98.00;;;;;;5034154;28;20041;-49
2021/11/26 04:23:20;;;;;;;37.10;12.73;;;8.10;98.00;;;;;;5022424;28;20033;-49
2021/11/26 04:25:46;;;;;;;38.40;12.80;;;8.10;98.00;;;;;;5012486;28;20036;-49
2021/11/26 04:28:11;;;;;;;48.95;12.23;;;8.10;98.00;;;;;;5025487;28;20025;-49
2021/11/26 04:30:37;;;;;;;35.00;11.13;;;8.10;98.10;;;;;;5033673;28;20084;-48
2021/11/26 04:33:03;;;;;;;33.72;10.20;;;8.10;98.00;;;;;;5034044;28;20029;-49
2021/11/26 04:35:28;;;;;;;35.80;12.55;;;8.10;98.00;;;;;;5033154;28;20471;-49
2021/11/26 04:37:54;;;;;;;29.88;11.85;;;8.10;97.90;;;;;;5032565;28;20334;-49
2021/11/26 04:40:20;;;;;;;34.28;11.30;;;8.10;98.00;;;;;;5034127;28;20033;-49
2021/11/26 04:42:46;;;;;;;39.13;12.00;;;8.00;98.00;;;;;;5033574;28;20044;-49
2021/11/26 04:45:14;;;;;;;44.30;12.98;;;8.10;98.00;;;;;;5033051;28;20127;-49
2021/11/26 04:47:40;;;;;;;47.83;12.93;;;8.10;97.90;;;;;;5033394;28;20441;-49
2021/11/26 04:50:08;;;;;;;47.80;13.13;;;8.10;98.00;;;;;;5033563;28;20045;-49
2021/11/26 04:52:34;;;;;;;38.55;12.70;;;8.10;98.10;;;;;;5032666;28;20034;-49
2021/11/26 04:54:59;;;;;;;32.33;10.93;;;8.10;98.00;;;;;;5033108;28;20368;-49
2021/11/26 04:57:25;;;;;;;40.42;11.02;;;8.00;98.00;;;;;;5033203;28;20018;-49
2021/11/26 04:59:51;;;;;;;37.42;10.70;;;8.10;98.10;;;;;;5033241;28;20038;-50
2021/11/26 05:02:16;;;;;;;47.08;12.40;;;8.00;98.00;;;;;;5032999;28;20250;-49
2021/11/26 05:04:42;;;;;;;34.45;11.43;;;8.00;97.90;;;;;;5033616;28;20021;-49
2021/11/26 05:07:07;;;;;;;31.80;10.45;;;8.00;98.00;;;;;;5032077;28;20041;-49
2021/11/26 05:09:33;;;;;;;32.53;10.77;;;8.10;98.10;;;;;;5017780;28;20018;-49
2021/11/26 05:12:00;;;;;;;35.03;11.57;;;8.10;98.10;;;;;;5015825;28;20030;-49
2021/11/26 05:14:27;;;;;;;28.08;10.70;;;8.10;97.90;;;;;;5013515;28;20030;-49
2021/11/26 05:16:52;;;;;;;33.72;12.38;;;8.10;98.10;;;;;;5012458;28;20097;-49
2021/11/26 05:19:18;;;;;;;32.45;10.50;;;8.00;98.00;;;;;;5013252;28;20112;-49
2021/11/26 05:21:44;;;;;;;33.30;11.30;;;8.10;98.00;;;;;;5013529;28;20034;-49
2021/11/26 05:24:12;;;;;;;27.95;10.07;;;8.10;98.10;;;;;;5026034;28;20025;-49
2021/11/26 05:26:38;;;;;;;30.77;10.13;;;8.10;98.10;;;;;;5032178;28;20041;-49
2021/11/26 05:29:04;;;;;;;27.75;9.80;;;8.00;98.10;;;;;;5032729;28;20067;-49
2021/11/26 05:31:35;;;;;;;36.92;10.05;;;8.10;98.10;;;;;;5032939;28;20029;-49
2021/11/26 05:34:02;;;;;;;27.23;10.10;;;8.00;97.90;;;;;;5032784;28;20032;-49
2021/11/26 05:36:28;;;;;;;29.33;10.82;;;8.00;97.90;;;;;;5031638;28;20448;-49
2021/11/26 05:38:53;;;;;;;31.75;9.77;;;8.00;98.00;;;;;;5019886;28;20026;-49
2021/11/26 05:41:19;;;;;;;39.35;12.45;;;8.00;98.00;;;;;;5017518;28;20653;-49
2021/11/26 05:43:45;;;;;;;33.65;10.93;;;8.00;98.00;;;;;;5027198;28;20372;-49
2021/11/26 05:46:10;;;;;;;40.33;12.27;;;8.10;98.00;;;;;;5031282;28;20404;-49
2021/11/26 05:48:36;;;;;;;34.35;11.35;;;8.00;97.90;;;;;;5027997;28;20029;-49
2021/11/26 05:51:01;;;;;;;34.55;9.82;;;8.10;98.10;;;;;;5032376;28;20029;-49
2021/11/26 05:53:27;;;;;;;40.25;13.07;;;8.00;98.00;;;;;;5031332;28;20033;-50
2021/11/26 05:55:53;;;;;;;38.28;11.23;;;8.10;98.00;;;;;;5030914;28;20032;-49
2021/11/26 05:58:18;;;;;;;39.95;10.50;;;8.10;98.10;;;;;;5032155;28;20033;-49
2021/11/26 06:00:44;;;;;;;29.88;9.60;;;8.10;97.90;;;;;;5032335;28;20034;-49
2021/11/26 06:03:09;;;;;;;33.90;11.52;;;8.00;97.90;;;;;;5031988;28;20364;-49
2021/11/26 06:05:35;;;;;;;29.20;9.82;;;8.00;97.90;;;;;;5031700;28;20026;-49
2021/11/26 06:08:01;;;;;;;29.48;10.10;;;8.00;98.00;;;;;;5031842;28;20409;-49
2021/11/26 06:10:26;;;;;;;31.42;11.00;;;8.10;97.90;;;;;;5012935;28;20100;-49
2021/11/26 06:12:52;;;;;;;33.67;10.55;;;8.00;98.00;;;;;;5012515;28;20393;-49
2021/11/26 06:15:20;;;;;;;37.28;11.82;;;8.00;97.90;;;;;;5011619;28;20452;-48
2021/11/26 06:17:46;;;;;;;32.22;9.32;;;8.00;97.90;;;;;;5012107;28;20026;-49
2021/11/26 06:20:13;;;;;;;34.72;10.20;;;8.10;98.00;;;;;;5011379;28;20037;-49
2021/11/26 06:22:40;;;;;;;29.75;10.35;;;8.10;98.00;;;;;;5012022;28;20101;-49
2021/11/26 06:25:07;;;;;;;30.45;10.77;;;8.10;98.00;;;;;;5025287;28;20033;-49
2021/11/26 06:27:33;;;;;;;31.52;8.55;;;8.10;98.00;;;;;;5031678;28;20033;-49
2021/11/26 06:29:59;;;;;;;26.92;9.77;;;8.00;98.00;;;;;;5031252;28;20029;-49
2021/11/26 06:32:25;;;;;;;28.83;8.48;;;8.00;97.70;;;;;;5031556;28;20476;-49
2021/11/26 06:34:51;;;;;;;39.88;11.68;;;8.00;97.90;;;;;;5031519;28;20040;-49
2021/11/26 06:37:17;;;;;;;31.08;11.10;;;8.00;97.60;;;;;;5030621;28;20100;-49
2021/11/26 06:39:43;;;;;;;32.13;11.45;;;8.00;97.60;;;;;;5030374;28;20426;-49
2021/11/26 06:42:09;;;;;;;33.08;11.57;;;8.00;97.70;;;;;;5020299;28;20105;-49
2021/11/26 06:44:36;;;;;;;42.20;12.32;;;8.00;97.60;;;;;;5011461;28;20075;-49
2021/11/26 06:47:03;;;;;;;31.88;11.05;;;8.00;97.60;;;;;;5010607;28;20018;-50
2021/11/26 06:49:28;;;;;;;33.08;11.80;;;8.00;97.60;;;;;;5011504;28;20029;-49
2021/11/26 06:51:54;;;;;;;54.45;13.20;;;8.00;97.70;;;;;;5011649;28;20042;-49
2021/11/26 06:54:19;;;;;;;63.78;17.08;;;8.00;97.60;;;;;;5016586;28;20033;-49
2021/11/26 06:56:45;;;;;;;55.65;18.40;;;8.00;97.60;;;;;;5030745;28;20109;-49
2021/11/26 06:59:11;;;;;;;44.85;14.38;;;8.00;97.70;;;;;;5030510;28;20034;-49
2021/11/26 07:01:36;;;;;;;27.58;9.70;;;8.00;97.70;;;;;;5031271;28;20473;-49
2021/11/26 07:04:02;;;;;;;29.08;10.00;;;8.00;97.70;;;;;;5031009;28;20018;-49
2021/11/26 07:06:28;;;;;;;31.10;10.63;;;8.00;97.70;;;;;;5030653;28;20077;-49
2021/11/26 07:08:54;;;;;;;35.17;10.85;;;8.10;97.80;;;;;;5028928;28;20034;-49
2021/11/26 07:11:19;;;;;;;31.38;9.98;;;8.00;97.80;;;;;;5010865;28;20030;-49
2021/11/26 07:13:45;;;;;;;28.63;9.73;;;8.00;97.70;;;;;;5010828;28;20045;-49
2021/11/26 07:16:11;;;;;;;27.15;9.05;;;8.10;97.80;;;;;;5010746;28;20521;-49
2021/11/26 07:18:36;;;;;;;40.58;11.70;;;8.00;97.70;;;;;;5011420;28;20022;-49
2021/11/26 07:21:02;;;;;;;26.00;9.48;;;8.00;97.80;;;;;;5010765;28;20025;-49
2021/11/26 07:23:27;;;;;;;28.95;10.13;;;8.10;97.80;;;;;;5011329;28;20025;-49
2021/11/26 07:25:53;;;;;;;33.83;9.23;;;8.10;97.80;;;;;;5012715;28;20034;-49
2021/11/26 07:28:19;;;;;;;25.42;8.60;;;8.00;97.70;;;;;;5023071;28;20029;-49
2021/11/26 07:30:45;;;;;;;32.67;9.93;;;8.00;97.80;;;;;;5030975;28;20401;-49
2021/11/26 07:33:11;;;;;;;30.45;9.93;;;8.10;97.80;;;;;;5029739;28;20060;-49
2021/11/26 07:35:37;;;;;;;25.17;9.73;;;8.10;97.80;;;;;;5029495;28;20068;-49
2021/11/26 07:38:02;;;;;;;33.17;10.07;;;8.10;97.80;;;;;;5030571;28;20049;-49
2021/11/26 07:40:28;;;;;;;27.05;10.40;;;8.10;97.80;;;;;;5029586;28;20048;-49
2021/11/26 07:42:53;;;;;;;31.58;10.25;;;8.00;97.70;;;;;;5030166;28;20025;-49
2021/11/26 07:45:20;;;;;;;31.40;10.02;;;8.10;97.80;;;;;;5029754;28;20017;-49
2021/11/26 07:47:46;;;;;;;31.75;10.88;;;8.00;97.80;;;;;;5030136;28;20082;-49
2021/11/26 07:50:12;;;;;;;29.33;10.38;;;8.00;97.80;;;;;;5030373;28;20029;-49
2021/11/26 07:52:40;;;;;;;33.92;10.15;;;8.00;97.80;;;;;;5030605;28;20014;-49
2021/11/26 07:55:06;;;;;;;32.95;10.10;;;8.10;97.80;;;;;;5028944;28;20048;-49
2021/11/26 07:57:34;;;;;;;25.58;9.43;;;8.00;97.80;;;;;;5029238;28;20453;-49
2021/11/26 07:59:59;;;;;;;26.83;10.95;;;8.00;98.20;;;;;;5030371;28;20428;-48
2021/11/26 08:02:25;;;;;;;29.20;10.50;;;8.00;97.80;;;;;;5030030;28;20053;-49
2021/11/26 08:04:50;;;;;;;24.02;8.95;;;8.10;97.90;;;;;;5030315;28;20065;-49
2021/11/26 08:07:16;;;;;;;31.75;11.32;;;8.10;98.20;;;;;;5029409;28;20288;-49
2021/11/26 08:09:42;;;;;;;34.60;10.50;;;8.10;97.90;;;;;;5025573;28;20034;-49
2021/11/26 08:12:08;;;;;;;22.80;9.02;;;8.10;97.90;;;;;;5010227;28;20033;-49
2021/11/26 08:14:33;;;;;;;27.67;8.02;;;8.10;97.90;;;;;;5010765;28;20022;-49
2021/11/26 08:16:59;;;;;;;30.65;10.57;;;8.00;97.90;;;;;;5009750;28;20037;-49
2021/11/26 08:19:26;;;;;;;28.60;9.52;;;8.10;97.90;;;;;;5010320;28;20095;-49
2021/11/26 08:21:53;;;;;;;26.05;8.57;;;8.10;97.90;;;;;;5010337;28;20026;-49
2021/11/26 08:24:21;;;;;;;32.08;11.05;;;8.10;97.90;;;;;;5018260;28;20026;-49
2021/11/26 08:26:47;;;;;;;23.02;8.38;;;8.10;97.90;;;;;;5028622;28;20072;-49
2021/11/26 08:29:13;;;;;;;25.08;9.02;;;8.10;97.90;;;;;;5030156;28;20479;-49
2021/11/26 08:31:38;;;;;;;31.17;8.73;;;8.10;97.90;;;;;;5030134;28;20036;-48
2021/11/26 08:34:05;;;;;;;27.15;8.32;;;8.10;97.90;;;;;;5029759;28;20032;-49
2021/11/26 08:36:31;;;;;;;20.65;8.20;;;8.10;97.90;;;;;;5029287;28;20037;-49
2021/11/26 08:38:57;;;;;;;23.42;8.63;;;8.10;97.90;;;;;;5029801;28;20080;-49
2021/11/26 08:41:24;;;;;;;23.65;9.52;;;8.10;97.90;;;;;;5028626;28;20064;-49
2021/11/26 08:43:50;;;;;;;26.95;9.57;;;8.10;97.90;;;;;;5031852;28;20108;-49
2021/11/26 08:46:16;;;;;;;31.40;10.57;;;8.10;98.00;;;;;;5033309;28;20037;-49
2021/11/26 08:48:42;;;;;;;25.50;8.48;;;8.10;98.20;;;;;;5033439;28;20021;-49
2021/11/26 08:51:08;;;;;;;24.58;9.57;;;8.10;97.90;;;;;;5033284;28;20041;-49
2021/11/26 08:53:37;;;;;;;24.35;9.68;;;8.10;98.00;;;;;;5033443;28;20029;-49
2021/11/26 08:56:03;;;;;;;26.60;8.85;;;8.10;98.00;;;;;;5031841;28;20041;-49
2021/11/26 08:58:29;;;;;;;23.67;9.25;;;8.10;98.00;;;;;;5033226;28;20034;-49
2021/11/26 09:00:55;;;;;;;30.77;10.73;;;8.10;97.90;;;;;;5033506;28;20037;-49
2021/11/26 09:03:21;;;;;;;30.52;10.70;;;8.10;98.00;;;;;;5033128;28;20026;-49
2021/11/26 09:05:47;;;;;;;24.75;9.23;;;8.10;97.90;;;;;;5032544;28;20132;-49
2021/11/26 09:08:16;;;;;;;27.63;9.43;;;8.10;97.90;;;;;;5032648;28;20108;-49
2021/11/26 09:10:45;;;;;;;36.17;9.70;;;8.10;98.00;;;;;;5024964;28;20044;-49
2021/11/26 09:13:11;;;;;;;35.08;10.65;;;8.10;98.00;;;;;;5013150;28;20037;-49
2021/11/26 09:15:38;;;;;;;25.67;8.98;;;8.10;98.00;;;;;;5012669;28;20512;-49
2021/11/26 09:18:04;;;;;;;27.83;8.73;;;8.10;98.00;;;;;;5013392;28;20041;-49
2021/11/26 09:20:32;;;;;;;30.85;9.93;;;8.10;98.00;;;;;;5013168;28;20030;-50
2021/11/26 09:22:58;;;;;;;24.27;8.60;;;8.10;98.00;;;;;;5012661;28;20354;-49
2021/11/26 09:25:23;;;;;;;27.48;9.40;;;8.10;98.00;;;;;;5015506;28;20040;-49
2021/11/26 09:27:49;;;;;;;26.35;9.18;;;8.10;98.00;;;;;;5033080;28;20032;-49
2021/11/26 09:30:18;;;;;;;30.75;10.48;;;8.10;98.00;;;;;;5032963;28;20132;-49
2021/11/26 09:32:44;;;;;;;27.85;8.95;;;8.20;98.00;;;;;;5032752;28;20091;-49
2021/11/26 09:35:10;;;;;;;30.35;9.02;;;8.10;98.00;;;;;;5031427;28;20449;-49
2021/11/26 09:37:36;;;;;;;30.27;8.85;;;8.20;98.00;;;;;;5032245;28;20029;-49
2021/11/26 09:40:04;;;;;;;27.65;9.57;;;8.10;98.00;;;;;;5032176;28;20466;-49
2021/11/26 09:42:31;;;;;;;29.02;9.50;;;8.20;98.10;;;;;;5032763;28;20318;-49
2021/11/26 09:45:00;;;;;;;37.00;10.13;;;8.10;98.40;;;;;;5032130;28;20041;-49
2021/11/26 09:47:25;;;;;;;23.67;9.35;;;8.20;98.10;;;;;;5031962;28;20359;-49
2021/11/26 09:49:51;;;;;;;29.48;10.07;;;8.10;98.40;;;;;;5032149;28;20034;-49
2021/11/26 09:52:17;;;;;;;25.52;11.52;;;8.10;98.10;;;;;;5032172;28;20025;-49
2021/11/26 09:54:45;;;;;;;37.13;10.48;;;8.10;98.00;;;;;;5031568;28;20148;-49
2021/11/26 09:57:12;;;;;;;27.15;9.40;;;8.10;98.10;;;;;;5030391;28;20025;-49
2021/11/26 09:59:42;;;;;;;32.95;10.32;;;8.20;98.10;;;;;;5032184;28;20044;-49
2021/11/26 10:02:14;;;;;;;22.05;8.60;;;8.10;98.20;;;;;;5022616;28;20057;-49
2021/11/26 10:04:40;;;;;;;32.03;11.65;;;8.20;98.10;;;;;;5011880;28;20408;-49
2021/11/26 10:07:06;;;;;;;30.05;10.25;;;8.20;98.10;;;;;;5011836;28;20479;-49
2021/11/26 10:09:37;;;;;;;20.02;6.97;;;8.20;98.20;;;;;;5012275;28;20396;-49
2021/11/26 10:12:06;;;;;;;24.80;9.05;;;8.20;98.20;;;;;;5026075;28;20029;-49
2021/11/26 10:14:38;;;;;;;21.05;7.03;;;8.20;98.20;;;;;;5031617;28;20022;-49
2021/11/26 10:17:12;;;;;;;27.52;8.35;;;8.20;98.10;;;;;;5031306;28;20099;-49
2021/11/26 10:19:46;;;;;;;26.92;8.23;;;8.20;98.20;;;;;;5032043;28;20033;-49
2021/11/26 10:22:22;;;;;;;19.65;8.75;;;8.20;98.10;;;;;;5031978;28;20033;-49
2021/11/26 10:25:15;;;;;;;21.23;8.55;;;8.20;98.20;;;;;;5029713;28;20022;-49
2021/11/26 10:27:51;;;;;;;28.92;9.13;;;8.20;98.20;;;;;;5019630;28;20061;-49
2021/11/26 10:30:30;;;;;;;29.98;8.45;;;8.20;98.20;;;;;;5031387;28;20076;-49
2021/11/26 10:33:00;;;;;;;26.33;7.38;;;8.20;98.20;;;;;;5031438;28;20033;-49
2021/11/26 10:35:36;;;;;;;23.98;7.50;;;8.20;98.20;;;;;;5012826;28;20029;-49
2021/11/26 10:38:10;;;;;;;23.70;9.60;;;8.20;98.20;;;;;;5026894;28;20026;-49
2021/11/26 10:40:39;;;;;;;27.27;9.07;;;8.20;98.20;;;;;;5011454;28;20029;-49
2021/11/26 10:43:11;;;;;;;25.30;8.37;;;8.20;98.30;;;;;;5011384;28;20330;-49
2021/11/26 10:59:03;;;;;;;20.73;8.20;;;8.20;98.30;;;;;;5031383;28;20116;-49
2021/11/26 11:01:29;;;;;;;22.23;7.35;;;8.20;98.40;;;;;;5031065;28;20575;-49
2021/11/26 11:03:55;;;;;;;23.17;7.72;;;8.30;98.40;;;;;;5030961;28;20044;-49
2021/11/26 11:06:23;;;;;;;16.00;7.03;;;8.30;98.30;;;;;;5030253;28;20120;-49
2021/11/26 11:09:07;;;;;;;22.67;8.20;;;8.30;98.40;;;;;;5030886;28;20357;-49
2021/11/26 11:11:34;;;;;;;20.45;6.95;;;8.30;98.30;;;;;;5024036;28;20129;-49
2021/11/26 11:14:03;;;;;;;20.75;7.45;;;8.30;98.40;;;;;;5011302;28;20119;-49
2021/11/26 11:16:29;;;;;;;22.33;7.50;;;8.30;98.30;;;;;;5010247;28;20034;-49
2021/11/26 11:18:54;;;;;;;25.70;9.18;;;8.30;98.40;;;;;;5011062;28;20440;-49
2021/11/26 11:21:20;;;;;;;30.52;9.65;;;8.30;98.40;;;;;;5011108;28;20022;-49
2021/11/26 11:23:49;;;;;;;18.98;8.27;;;8.30;98.40;;;;;;5011350;28;20053;-49
2021/11/26 11:26:15;;;;;;;21.08;8.70;;;8.30;98.40;;;;;;5011763;28;20121;-49
2021/11/26 11:28:41;;;;;;;26.25;8.70;;;8.30;98.40;;;;;;5030815;28;20025;-49
2021/11/26 11:31:06;;;;;;;26.20;8.50;;;8.30;98.40;;;;;;5030382;28;20372;-49
2021/11/26 11:33:34;;;;;;;27.50;9.30;;;8.30;98.30;;;;;;5031009;28;20453;-49
2021/11/26 11:36:02;;;;;;;24.88;8.35;;;8.30;98.40;;;;;;5030046;28;20029;-49
2021/11/26 11:38:28;;;;;;;20.65;9.05;;;8.30;98.40;;;;;;5030613;28;20033;-49
2021/11/26 11:41:05;;;;;;;22.20;7.75;;;8.40;98.40;;;;;;5030501;28;20026;-49
2021/11/26 11:43:41;;;;;;;23.40;7.90;;;8.30;98.40;;;;;;5010420;28;20025;-49
2021/11/26 11:46:10;;;;;;;22.77;7.50;;;8.40;98.40;;;;;;5010107;28;20101;-49
2021/11/26 11:48:43;;;;;;;30.45;8.95;;;8.40;98.40;;;;;;5010813;28;20076;-49
2021/11/26 11:51:23;;;;;;;24.15;6.88;;;8.30;98.40;;;;;;5010356;28;20457;-49
2021/11/26 11:53:59;;;;;;;;;;;8.40;98.40;;;;;;5011068;28;20467;-49
2021/11/26 11:56:25;;;;;;;24.67;8.48;;;8.40;98.40;;;;;;5010274;28;20402;-49
2021/11/26 11:58:54;;;;;;;25.98;10.27;;;8.30;98.40;;;;;;5030550;28;20029;-49
2021/11/26 12:01:29;;;;;;;38.13;10.95;;;8.40;98.50;;;;;;5029883;28;20509;-49
2021/11/26 12:03:57;;;;;;;23.75;9.13;;;8.40;98.50;;;;;;5030837;28;20038;-49
2021/11/26 12:06:35;;;;;;;29.60;8.95;;;8.30;98.50;;;;;;5029440;28;20030;-49
2021/11/26 12:09:02;;;;;;;28.83;7.03;;;8.40;98.40;;;;;;5030298;28;20523;-49
2021/11/26 12:11:30;;;;;;;28.13;9.05;;;8.40;98.50;;;;;;5027891;28;20120;-49
2021/11/26 12:14:01;;;;;;;20.98;8.52;;;8.40;98.50;;;;;;5010649;28;20022;-50
2021/11/26 12:16:28;;;;;;;22.00;8.35;;;8.40;98.50;;;;;;5015048;28;20121;-50
2021/11/26 12:18:54;;;;;;;21.02;7.18;;;8.40;98.50;;;;;;5031710;28;20491;-49
2021/11/26 12:21:23;;;;;;;18.45;7.50;;;8.40;98.50;;;;;;5034098;28;20522;-49
2021/11/26 12:24:13;;;;;;;31.02;9.95;;;8.40;98.50;;;;;;5034322;28;20076;-49
2021/11/26 12:26:58;;;;;;;26.98;9.23;;;8.40;98.40;;;;;;5030964;28;20025;-49
2021/11/26 12:29:42;;;;;;;20.98;9.30;;;8.40;98.50;;;;;;5013966;28;20014;-49
2021/11/26 12:32:13;;;;;;;18.73;8.27;;;8.40;98.50;;;;;;5014069;28;20053;-49
2021/11/26 12:34:43;;;;;;;22.80;7.78;;;8.40;98.50;;;;;;5013953;28;20042;-49
2021/11/26 12:37:26;;;;;;;24.83;8.63;;;8.40;98.50;;;;;;5012737;28;20674;-49
2021/11/26 12:39:56;;;;;;;26.33;8.43;;;8.40;98.50;;;;;;5013150;28;20030;-49
2021/11/26 12:42:22;;;;;;;24.13;8.68;;;8.40;98.50;;;;;;5013667;28;20088;-49
2021/11/26 12:45:16;;;;;;;25.20;11.60;;;8.40;98.50;;;;;;5014206;28;20408;-49
2021/11/26 12:47:56;;;;;;;26.92;7.78;;;8.40;98.40;;;;;;5010462;28;20033;-49
2021/11/26 12:53:15;;;;;;;14.20;6.40;;;8.40;98.60;;;;;;5014186;28;19912;-49
2021/11/26 12:55:55;;;;;;;22.00;8.25;;;8.40;98.50;;;;;;5013063;28;20520;-49
2021/11/26 12:58:22;;;;;;;21.13;7.05;;;8.40;98.50;;;;;;5026077;28;20041;-49